createdAt,value
2023-05-05T00:00:41.117Z,86.32
2023-05-05T00:03:08.025Z,86.20
2023-05-05T00:05:34.729Z,87.20
2023-05-05T00:08:01.744Z,87.39
2023-05-05T00:10:28.416Z,88.27
2023-05-05T00:12:55.136Z,89.40
2023-05-05T00:15:22.050Z,88.23
2023-05-05T00:17:48.930Z,88.46
2023-05-05T00:20:15.915Z,89.67
2023-05-05T00:22:42.532Z,90.20
2023-05-05T00:25:09.488Z,89.70
2023-05-05T00:27:37.002Z,88.63
2023-05-05T00:30:05.991Z,90.28
2023-05-05T00:32:32.996Z,90.92
2023-05-05T00:35:00.015Z,90.64
2023-05-05T00:37:27.173Z,90.68
2023-05-05T00:39:53.945Z,89.88
2023-05-05T00:42:20.714Z,89.40
2023-05-05T00:44:47.893Z,90.76
2023-05-05T00:47:16.846Z,91.38
2023-05-05T00:49:43.705Z,90.47
2023-05-05T00:52:11.604Z,90.10
2023-05-05T00:54:41.727Z,89.53
2023-05-05T00:57:11.113Z,90.66
2023-05-05T00:59:41.628Z,91.20
2023-05-05T01:02:15.994Z,90.77
2023-05-05T01:04:44.168Z,91.45
2023-05-05T01:07:13.631Z,91.11
2023-05-05T01:10:20.971Z,92.29
2023-05-05T01:13:03.880Z,91.68
2023-05-05T01:15:35.215Z,90.48
2023-05-05T01:18:32.664Z,90.84
2023-05-05T01:21:07.470Z,91.37
2023-05-05T01:23:46.372Z,91.86
2023-05-05T01:26:34.977Z,93.71
2023-05-05T01:29:07.882Z,93.55
2023-05-05T01:31:40.539Z,92.86
2023-05-05T01:34:09.968Z,93.51
2023-05-05T01:36:42.404Z,92.12
2023-05-05T01:39:14.886Z,93.14
2023-05-05T01:41:51.920Z,92.85
2023-05-05T01:44:20.371Z,94.01
2023-05-05T01:46:50.472Z,94.21
2023-05-05T01:49:17.712Z,93.52
2023-05-05T01:51:49.024Z,93.98
2023-05-05T01:54:18.740Z,94.08
2023-05-05T01:56:46.632Z,93.44
2023-05-05T01:59:14.019Z,94.64
2023-05-05T02:01:41.920Z,93.75
2023-05-05T02:04:10.079Z,93.53
2023-05-05T02:06:39.934Z,92.74
2023-05-05T02:09:08.845Z,94.44
2023-05-05T02:11:36.490Z,93.79
2023-05-05T02:14:04.130Z,92.94
2023-05-05T02:16:32.369Z,94.52
2023-05-05T02:19:04.711Z,94.77
2023-05-05T02:21:32.149Z,96.74
2023-05-05T02:23:59.207Z,95.70
2023-05-05T02:26:26.859Z,96.38
2023-05-05T02:29:17.756Z,95.09
2023-05-05T02:31:49.389Z,95.27
2023-05-05T02:34:26.222Z,96.00
2023-05-05T02:36:58.578Z,95.97
2023-05-05T02:39:38.661Z,96.63
2023-05-05T02:42:06.000Z,98.93
2023-05-05T02:44:33.821Z,97.92
2023-05-05T02:47:03.938Z,99.20
2023-05-05T02:49:30.691Z,97.81
2023-05-05T02:51:58.126Z,99.01
2023-05-05T02:54:25.318Z,98.22
2023-05-05T02:56:54.076Z,98.74
2023-05-05T02:59:49.622Z,98.95
2023-05-05T03:02:29.022Z,98.56
2023-05-05T03:05:00.922Z,100.00
2023-05-05T03:07:33.891Z,99.79
2023-05-05T03:10:10.316Z,100.00
2023-05-05T03:12:56.227Z,100.00
2023-05-05T03:15:28.152Z,100.00
2023-05-05T03:17:56.959Z,100.00
2023-05-05T03:20:24.609Z,100.00
2023-05-05T03:22:56.329Z,100.00
2023-05-05T03:25:23.120Z,100.00
2023-05-05T03:27:49.755Z,100.00
2023-05-05T03:30:16.556Z,100.00
2023-05-05T03:32:43.219Z,100.00
2023-05-05T03:35:10.208Z,100.00
2023-05-05T03:37:36.876Z,100.00
2023-05-05T03:40:04.010Z,100.00
2023-05-05T03:42:33.761Z,100.00
2023-05-05T03:45:00.525Z,100.00
2023-05-05T03:47:27.259Z,100.00
2023-05-05T03:49:53.848Z,100.00
2023-05-05T03:52:20.934Z,100.00
2023-05-05T03:54:47.555Z,100.00
2023-05-05T03:57:14.250Z,100.00
2023-05-05T03:59:40.948Z,100.00
2023-05-05T04:02:08.004Z,100.00
2023-05-05T04:04:34.957Z,100.00
2023-05-05T04:07:01.821Z,100.00
2023-05-05T04:09:28.482Z,100.00
2023-05-05T04:11:55.171Z,100.00
2023-05-05T04:14:22.381Z,100.00
2023-05-05T04:16:51.536Z,100.00
2023-05-05T04:19:24.026Z,100.00
2023-05-05T04:21:53.763Z,100.00
2023-05-05T04:24:24.703Z,100.00
2023-05-05T04:26:52.158Z,99.39
2023-05-05T04:29:18.855Z,98.48
2023-05-05T04:31:45.756Z,98.46
2023-05-05T04:34:12.539Z,98.47
2023-05-05T04:36:39.315Z,98.90
2023-05-05T04:39:07.198Z,98.28
2023-05-05T04:41:34.040Z,98.10
2023-05-05T04:44:00.693Z,97.87
2023-05-05T04:46:29.656Z,96.54
2023-05-05T04:49:01.299Z,95.59
2023-05-05T04:51:27.962Z,94.24
2023-05-05T04:53:54.664Z,95.46
2023-05-05T04:56:21.494Z,92.92
2023-05-05T04:58:48.109Z,92.88
2023-05-05T05:01:14.755Z,92.88
2023-05-05T05:03:42.151Z,89.84
2023-05-05T05:06:09.210Z,90.91
2023-05-05T05:08:35.794Z,88.39
2023-05-05T05:11:02.465Z,86.52
2023-05-05T05:13:29.163Z,88.15
2023-05-05T05:15:57.468Z,84.62
2023-05-05T05:18:24.398Z,86.11
2023-05-05T05:20:51.331Z,84.91
2023-05-05T05:23:20.958Z,84.07
2023-05-05T05:25:48.330Z,81.36
2023-05-05T05:28:17.557Z,79.59
2023-05-05T05:30:44.578Z,82.05
2023-05-05T05:33:11.485Z,77.93
2023-05-05T05:35:44.124Z,76.65
2023-05-05T05:38:10.881Z,77.95
2023-05-05T05:40:38.090Z,77.19
2023-05-05T05:43:04.893Z,75.92
2023-05-05T05:45:31.866Z,75.44
2023-05-05T05:47:58.768Z,75.31
2023-05-05T05:50:28.663Z,75.87
2023-05-05T05:52:58.693Z,74.27
2023-05-05T05:55:25.448Z,72.28
2023-05-05T05:57:52.175Z,70.03
2023-05-05T06:00:19.303Z,69.92
2023-05-05T06:02:46.084Z,69.11
2023-05-05T06:05:15.751Z,68.68
2023-05-05T06:07:42.410Z,65.43
2023-05-05T06:10:25.586Z,66.30
2023-05-05T06:12:52.933Z,66.07
2023-05-05T06:15:19.714Z,62.95
2023-05-05T06:17:48.828Z,64.67
2023-05-05T06:20:15.690Z,64.08
2023-05-05T06:22:42.473Z,64.50
2023-05-05T06:25:09.379Z,63.76
2023-05-05T06:27:36.059Z,65.53
2023-05-05T06:30:02.763Z,64.00
2023-05-05T06:32:29.440Z,65.23
2023-05-05T06:35:01.107Z,65.22
2023-05-05T06:37:27.799Z,65.21
2023-05-05T06:39:54.424Z,63.70
2023-05-05T06:42:21.227Z,64.01
2023-05-05T06:44:47.965Z,64.26
2023-05-05T06:47:14.666Z,64.09
2023-05-05T06:49:41.283Z,62.83
2023-05-05T06:52:08.446Z,59.64
2023-05-05T06:54:35.150Z,61.82
2023-05-05T06:57:01.982Z,60.21
2023-05-05T06:59:28.743Z,61.44
2023-05-05T07:01:56.593Z,60.26
2023-05-05T07:04:32.690Z,60.00
2023-05-05T07:06:59.307Z,60.74
2023-05-05T07:09:26.012Z,58.22
2023-05-05T07:11:52.681Z,57.06
2023-05-05T07:14:20.099Z,55.23
2023-05-05T07:16:47.731Z,55.32
2023-05-05T07:19:14.419Z,54.97
2023-05-05T07:21:41.218Z,54.24
2023-05-05T07:24:08.024Z,54.35
2023-05-05T07:26:35.063Z,52.98
2023-05-05T07:29:02.685Z,53.21
2023-05-05T07:31:29.358Z,51.84
2023-05-05T07:33:56.459Z,52.47
2023-05-05T07:36:23.294Z,54.04
2023-05-05T07:38:50.034Z,51.92
2023-05-05T07:41:20.148Z,52.82
2023-05-05T07:43:46.924Z,52.24
2023-05-05T07:46:14.133Z,52.97
2023-05-05T07:48:41.851Z,51.87
2023-05-05T07:51:09.378Z,52.93
2023-05-05T07:53:36.339Z,49.95
2023-05-05T07:56:03.387Z,51.26
2023-05-05T07:58:30.088Z,50.81
2023-05-05T08:01:04.318Z,51.18
2023-05-05T08:03:31.359Z,48.75
2023-05-05T08:09:42.112Z,49.82
2023-05-05T08:12:09.760Z,49.84
2023-05-05T08:14:49.415Z,49.77
2023-05-05T08:17:17.485Z,48.91
2023-05-05T08:19:44.419Z,49.04
2023-05-05T08:22:14.924Z,48.83
2023-05-05T08:24:44.524Z,48.56
2023-05-05T08:27:14.369Z,47.55
2023-05-05T08:29:40.942Z,47.38
2023-05-05T08:32:10.630Z,47.39
2023-05-05T08:34:40.462Z,46.99
2023-05-05T08:37:10.088Z,46.61
2023-05-05T08:39:36.788Z,47.47
2023-05-05T08:42:03.513Z,45.04
2023-05-05T08:44:30.226Z,46.82
2023-05-05T08:46:57.997Z,45.42
2023-05-05T08:49:25.952Z,46.65
2023-05-05T08:51:54.257Z,46.47
2023-05-05T08:54:27.807Z,46.71
2023-05-05T08:56:57.658Z,45.08
2023-05-05T08:59:25.693Z,45.23
2023-05-05T09:01:54.208Z,44.64
2023-05-05T09:04:21.181Z,44.35
2023-05-05T09:06:47.976Z,44.65
2023-05-05T09:09:14.898Z,44.27
2023-05-05T09:11:42.346Z,44.18
2023-05-05T09:14:09.379Z,44.12
2023-05-05T09:16:36.060Z,43.26
2023-05-05T09:19:06.047Z,44.25
2023-05-05T09:21:33.081Z,43.31
2023-05-05T09:24:10.923Z,42.64
2023-05-05T09:26:47.752Z,42.99
2023-05-05T09:29:22.020Z,42.76
2023-05-05T09:32:18.334Z,42.93
2023-05-05T09:34:58.084Z,42.79
2023-05-05T09:37:31.569Z,42.25
2023-05-05T09:40:01.283Z,42.51
2023-05-05T09:42:28.272Z,41.32
2023-05-05T09:44:55.408Z,41.20
2023-05-05T09:47:34.945Z,41.43
2023-05-05T09:50:02.256Z,41.28
2023-05-05T09:52:29.118Z,41.18
2023-05-05T09:54:57.168Z,40.24
2023-05-05T09:57:28.900Z,40.82
2023-05-05T09:59:57.561Z,41.45
2023-05-05T10:02:34.926Z,42.00
2023-05-05T10:05:13.914Z,42.29
2023-05-05T10:07:45.169Z,40.92
2023-05-05T10:10:17.720Z,43.02
2023-05-05T10:12:47.624Z,42.92
2023-05-05T10:15:23.108Z,42.33
2023-05-05T10:18:05.828Z,41.33
2023-05-05T10:20:36.762Z,41.47
2023-05-05T10:23:08.343Z,39.99
2023-05-05T10:25:44.820Z,40.12
2023-05-05T10:28:22.575Z,39.15
2023-05-05T10:30:56.904Z,38.49
2023-05-05T10:33:34.044Z,38.93
2023-05-05T10:36:06.638Z,39.84
2023-05-05T10:38:37.352Z,39.75
2023-05-05T10:41:04.754Z,38.53
2023-05-05T10:43:32.393Z,39.04
2023-05-05T10:45:59.794Z,38.46
2023-05-05T10:48:57.353Z,38.09
2023-05-05T10:51:39.906Z,37.90
2023-05-05T10:54:24.749Z,36.61
2023-05-05T10:56:51.954Z,37.00
2023-05-05T10:59:40.532Z,38.61
2023-05-05T11:02:26.899Z,38.27
2023-05-05T11:05:15.257Z,36.92
2023-05-05T11:07:43.305Z,37.99
2023-05-05T11:10:12.324Z,38.90
2023-05-05T11:13:03.702Z,38.52
2023-05-05T11:15:30.820Z,37.28
2023-05-05T11:18:08.200Z,38.14
2023-05-05T11:20:43.685Z,37.41
2023-05-05T11:23:10.882Z,38.29
2023-05-05T11:25:38.226Z,38.16
2023-05-05T11:28:16.522Z,38.37
2023-05-05T11:30:55.287Z,38.99
2023-05-05T11:33:38.356Z,37.98
2023-05-05T11:36:09.707Z,37.47
2023-05-05T11:38:55.768Z,36.67
2023-05-05T11:41:35.806Z,38.17
2023-05-05T11:47:01.130Z,35.98
2023-05-05T11:49:31.660Z,37.42
2023-05-05T11:52:03.676Z,37.89
2023-05-05T11:54:31.542Z,39.33
2023-05-05T11:57:07.758Z,38.47
2023-05-05T11:59:37.342Z,37.90
2023-05-05T12:02:04.722Z,38.04
2023-05-05T12:04:32.139Z,37.75
2023-05-05T12:06:59.382Z,36.10
2023-05-05T12:09:26.975Z,36.80
2023-05-05T12:11:54.511Z,36.30
2023-05-05T12:14:22.021Z,35.40
2023-05-05T12:16:56.341Z,35.65
2023-05-05T12:19:23.748Z,37.08
2023-05-05T12:21:50.385Z,36.39
2023-05-05T12:24:17.144Z,36.99
2023-05-05T12:26:43.785Z,36.93
2023-05-05T12:29:10.952Z,36.55
2023-05-05T12:31:42.142Z,35.96
2023-05-05T12:34:10.268Z,34.49
2023-05-05T12:36:37.649Z,35.73
2023-05-05T12:39:05.411Z,35.28
2023-05-05T12:41:33.081Z,35.71
2023-05-05T12:44:03.363Z,35.05
2023-05-05T12:46:31.259Z,36.26
2023-05-05T12:49:05.620Z,35.36
2023-05-05T12:51:36.724Z,35.07
2023-05-05T12:54:12.531Z,35.62
2023-05-05T12:56:47.322Z,37.48
2023-05-05T12:59:23.043Z,35.92
2023-05-05T13:01:50.356Z,35.15
2023-05-05T13:04:19.271Z,35.06
2023-05-05T13:06:47.556Z,36.20
2023-05-05T13:09:27.018Z,34.90
2023-05-05T13:11:54.748Z,34.82
2023-05-05T13:14:21.723Z,35.15
2023-05-05T13:16:48.401Z,35.79
2023-05-05T13:19:17.717Z,34.40
2023-05-05T13:21:44.319Z,35.04
2023-05-05T13:24:21.320Z,35.43
2023-05-05T13:26:53.196Z,35.19
2023-05-05T13:29:19.834Z,35.50
2023-05-05T13:31:46.587Z,35.04
2023-05-05T13:34:13.342Z,34.87
2023-05-05T13:36:39.977Z,34.58
2023-05-05T13:39:06.987Z,35.20
2023-05-05T13:41:33.610Z,35.79
2023-05-05T13:44:32.949Z,34.65
2023-05-05T13:47:02.253Z,36.05
2023-05-05T13:49:28.890Z,35.92
2023-05-05T13:51:56.456Z,36.38
2023-05-05T13:54:23.065Z,36.33
2023-05-05T13:56:49.690Z,35.42
2023-05-05T13:59:16.298Z,35.33
2023-05-05T14:01:42.885Z,35.18
2023-05-05T14:04:09.579Z,35.76
2023-05-05T14:06:36.247Z,35.99
2023-05-05T14:09:05.878Z,34.66
2023-05-05T14:11:32.884Z,34.24
2023-05-05T14:13:59.594Z,35.77
2023-05-05T14:16:26.277Z,35.49
2023-05-05T14:18:52.878Z,36.92
2023-05-05T14:21:19.526Z,36.46
2023-05-05T14:23:46.284Z,37.63
2023-05-05T14:26:12.849Z,37.13
2023-05-05T14:28:39.479Z,37.71
2023-05-05T14:31:06.162Z,37.86
2023-05-05T14:33:33.184Z,38.47
2023-05-05T14:35:59.994Z,38.14
2023-05-05T14:38:26.693Z,37.78
2023-05-05T14:40:53.329Z,37.45
2023-05-05T14:43:20.776Z,37.76
2023-05-05T14:45:47.483Z,37.41
2023-05-05T14:48:14.231Z,37.67
2023-05-05T14:50:42.541Z,37.81
2023-05-05T14:53:09.301Z,38.39
2023-05-05T14:55:36.038Z,38.50
2023-05-05T14:58:02.614Z,38.92
2023-05-05T15:00:29.323Z,39.00
2023-05-05T15:02:56.173Z,39.29
2023-05-05T15:05:22.971Z,40.13
2023-05-05T15:07:49.805Z,39.52
2023-05-05T15:10:17.287Z,38.80
2023-05-05T15:12:45.962Z,38.83
2023-05-05T15:15:12.755Z,39.15
2023-05-05T15:17:43.241Z,39.66
2023-05-05T15:20:20.478Z,39.16
2023-05-05T15:22:48.452Z,38.60
2023-05-05T15:25:16.469Z,39.35
2023-05-05T15:27:43.367Z,38.81
2023-05-05T15:30:11.511Z,38.45
2023-05-05T15:32:38.231Z,38.91
2023-05-05T15:35:05.146Z,38.67
2023-05-05T15:37:31.835Z,39.31
2023-05-05T15:39:58.719Z,38.63
2023-05-05T15:42:25.540Z,39.30
2023-05-05T15:44:52.390Z,38.82
2023-05-05T15:47:19.019Z,39.14
2023-05-05T15:49:45.631Z,39.56
2023-05-05T15:52:12.917Z,39.85
2023-05-05T15:54:39.599Z,39.96
2023-05-05T15:57:06.169Z,40.48
2023-05-05T15:59:32.889Z,40.67
2023-05-05T16:01:59.504Z,40.24
2023-05-05T16:04:26.178Z,40.26
2023-05-05T16:06:53.390Z,40.61
2023-05-05T16:09:20.272Z,40.26
2023-05-05T16:11:47.494Z,40.56
2023-05-05T16:14:14.121Z,40.29
2023-05-05T16:16:41.043Z,41.02
2023-05-05T16:19:07.693Z,41.61
2023-05-05T16:21:34.301Z,41.27
2023-05-05T16:24:01.035Z,41.96
2023-05-05T16:26:27.782Z,41.74
2023-05-05T16:28:54.423Z,42.28
2023-05-05T16:31:21.202Z,42.29
2023-05-05T16:33:47.908Z,42.38
2023-05-05T16:36:14.702Z,43.28
2023-05-05T16:38:41.738Z,42.71
2023-05-05T16:41:08.589Z,42.64
2023-05-05T16:43:37.269Z,43.28
2023-05-05T16:46:04.346Z,43.65
2023-05-05T16:48:43.240Z,43.71
2023-05-05T16:51:10.106Z,44.74
2023-05-05T16:53:36.793Z,43.98
2023-05-05T16:58:41.114Z,45.00
2023-05-05T17:01:07.830Z,44.81
2023-05-05T17:03:34.468Z,44.37
2023-05-05T17:08:49.304Z,45.11
2023-05-05T17:11:15.916Z,45.79
2023-05-05T17:13:42.773Z,47.00
2023-05-05T17:16:09.429Z,46.60
2023-05-05T17:18:37.125Z,46.04
2023-05-05T17:21:04.069Z,46.85
2023-05-05T17:23:30.736Z,46.49
2023-05-05T17:26:12.451Z,47.66
2023-05-05T17:28:39.058Z,47.13
2023-05-05T17:31:05.876Z,47.45
2023-05-05T17:33:32.554Z,47.61
2023-05-05T17:35:59.357Z,48.49
2023-05-05T17:38:25.968Z,47.84
2023-05-05T17:40:52.577Z,47.93
2023-05-05T17:43:19.145Z,47.87
2023-05-05T17:45:46.804Z,48.05
2023-05-05T17:48:13.744Z,48.74
2023-05-05T17:50:43.194Z,48.41
2023-05-05T17:53:11.210Z,48.81
2023-05-05T17:55:38.020Z,48.48
2023-05-05T17:58:04.700Z,48.83
2023-05-05T18:00:31.464Z,49.20
2023-05-05T18:02:58.384Z,49.46
2023-05-05T18:05:25.129Z,49.69
2023-05-05T18:07:51.777Z,51.17
2023-05-05T18:10:19.315Z,50.91
2023-05-05T18:12:46.084Z,51.97
2023-05-05T18:15:13.146Z,52.37
2023-05-05T18:17:40.473Z,53.14
2023-05-05T18:20:07.645Z,53.76
2023-05-05T18:22:34.693Z,53.77
2023-05-05T18:25:01.477Z,54.91
2023-05-05T18:27:29.190Z,55.58
2023-05-05T18:29:55.785Z,55.95
2023-05-05T18:32:22.522Z,56.35
2023-05-05T18:34:49.417Z,57.49
2023-05-05T18:37:16.034Z,58.42
2023-05-05T18:39:44.043Z,59.53
2023-05-05T18:42:13.080Z,59.57
2023-05-05T18:44:40.049Z,61.47
2023-05-05T18:47:07.961Z,61.87
2023-05-05T18:49:37.564Z,62.32
2023-05-05T18:52:04.506Z,62.71
2023-05-05T18:54:31.346Z,62.72
2023-05-05T18:56:59.425Z,63.99
2023-05-05T18:59:26.397Z,64.10
2023-05-05T19:01:53.076Z,65.27
2023-05-05T19:04:30.646Z,68.78
2023-05-05T19:06:58.607Z,71.80
2023-05-05T19:09:25.497Z,77.21
2023-05-05T19:11:52.107Z,84.64
2023-05-05T19:14:18.764Z,85.29
2023-05-05T19:16:45.759Z,84.15
2023-05-05T19:19:12.638Z,82.11
2023-05-05T19:21:39.473Z,84.72
2023-05-05T19:24:09.994Z,83.21
2023-05-05T19:26:36.726Z,81.42
2023-05-05T19:29:03.460Z,77.08
2023-05-05T19:31:31.394Z,76.17
2023-05-05T19:34:00.977Z,77.82
2023-05-05T19:36:28.337Z,75.36
2023-05-05T19:38:55.887Z,74.88
2023-05-05T19:41:22.665Z,72.78
2023-05-05T19:43:50.055Z,72.88
2023-05-05T19:46:19.717Z,74.50
2023-05-05T19:48:46.551Z,71.22
2023-05-05T19:51:13.423Z,71.37
2023-05-05T19:53:42.995Z,73.18
2023-05-05T19:56:10.102Z,71.02
2023-05-05T19:58:55.372Z,69.81
2023-05-05T20:01:22.324Z,70.09
2023-05-05T20:03:49.322Z,69.88
2023-05-05T20:06:19.082Z,70.71
2023-05-05T20:08:45.715Z,71.52
2023-05-05T20:11:17.252Z,70.72
2023-05-05T20:13:44.060Z,69.33
2023-05-05T20:16:10.979Z,71.03
2023-05-05T20:18:37.653Z,71.88
2023-05-05T20:21:04.719Z,71.89
2023-05-05T20:23:32.078Z,72.13
2023-05-05T20:25:59.198Z,72.06
2023-05-05T20:28:26.147Z,71.43
2023-05-05T20:30:52.771Z,69.57
2023-05-05T20:36:01.355Z,70.77
2023-05-05T20:38:27.922Z,70.95
2023-05-05T20:40:54.646Z,69.90
2023-05-05T20:43:21.273Z,70.94
2023-05-05T20:45:47.958Z,71.96
2023-05-05T20:48:14.879Z,71.08
2023-05-05T20:50:42.160Z,69.80
2023-05-05T20:53:11.012Z,71.42
2023-05-05T20:55:37.681Z,70.48
2023-05-05T20:58:06.906Z,70.54
2023-05-05T21:00:34.057Z,72.38
2023-05-05T21:03:02.787Z,73.36
2023-05-05T21:05:30.357Z,74.28
2023-05-05T21:07:58.516Z,73.54
2023-05-05T21:10:27.762Z,76.08
2023-05-05T21:12:54.817Z,77.70
2023-05-05T21:15:21.603Z,75.60
2023-05-05T21:17:48.520Z,77.15
2023-05-05T21:20:16.442Z,78.17
2023-05-05T21:22:43.278Z,81.43
2023-05-05T21:25:19.279Z,86.49
2023-05-05T21:27:47.151Z,88.48
2023-05-05T21:30:14.876Z,91.23
2023-05-05T21:32:42.264Z,90.88
2023-05-05T21:35:09.431Z,95.70
2023-05-05T21:37:39.665Z,95.04
2023-05-05T21:40:13.436Z,97.31
2023-05-05T21:42:41.362Z,96.13
2023-05-05T21:45:08.726Z,100.00
2023-05-05T21:47:35.587Z,98.63
2023-05-05T21:50:02.321Z,100.00
2023-05-05T21:52:29.059Z,100.00
2023-05-05T21:54:56.065Z,98.33
2023-05-05T21:57:22.674Z,100.00
2023-05-05T21:59:49.552Z,100.00
2023-05-05T22:02:16.138Z,100.00
2023-05-05T22:04:42.937Z,100.00
2023-05-05T22:07:09.543Z,100.00
2023-05-05T22:09:36.199Z,100.00
2023-05-05T22:12:02.952Z,100.00
2023-05-05T22:14:29.748Z,100.00
2023-05-05T22:16:56.493Z,100.00
2023-05-05T22:19:23.193Z,100.00
2023-05-05T22:21:49.947Z,100.00
2023-05-05T22:24:16.864Z,100.00
2023-05-05T22:26:43.695Z,100.00
2023-05-05T22:29:11.416Z,100.00
2023-05-05T22:31:38.578Z,100.00
2023-05-05T22:34:05.435Z,100.00
2023-05-05T22:36:32.151Z,100.00
2023-05-05T22:38:59.064Z,100.00
2023-05-05T22:41:25.943Z,100.00
2023-05-05T22:43:52.692Z,100.00
2023-05-05T22:46:19.328Z,100.00
2023-05-05T22:48:46.712Z,100.00
2023-05-05T22:51:13.510Z,100.00
2023-05-05T22:53:40.338Z,100.00
2023-05-05T22:56:07.224Z,100.00
2023-05-05T22:58:34.459Z,100.00
2023-05-05T23:01:01.143Z,100.00
2023-05-05T23:03:27.758Z,100.00
2023-05-05T23:05:54.478Z,100.00
2023-05-05T23:08:21.607Z,100.00
2023-05-05T23:10:50.748Z,100.00
2023-05-05T23:13:17.593Z,100.00
2023-05-05T23:15:44.804Z,100.00
2023-05-05T23:18:11.612Z,100.00
2023-05-05T23:20:38.488Z,100.00
2023-05-05T23:23:05.254Z,100.00
2023-05-05T23:25:49.454Z,100.00
2023-05-05T23:28:16.310Z,100.00
2023-05-05T23:30:43.289Z,100.00
2023-05-05T23:33:10.056Z,100.00
2023-05-05T23:35:39.641Z,100.00
2023-05-05T23:38:06.920Z,100.00
2023-05-05T23:40:34.470Z,100.00
2023-05-05T23:43:01.863Z,100.00
2023-05-05T23:45:28.880Z,100.00
2023-05-05T23:47:56.135Z,100.00
2023-05-05T23:50:22.956Z,100.00
2023-05-05T23:52:49.773Z,100.00
2023-05-05T23:55:16.478Z,100.00
2023-05-05T23:57:43.478Z,100.00
